createdAt,value
2023-05-23T00:02:08.227Z,3.83
2023-05-23T00:04:36.817Z,4.00
2023-05-23T00:07:04.460Z,3.40
2023-05-23T00:09:31.087Z,4.22
2023-05-23T00:11:57.856Z,4.15
2023-05-23T00:14:24.656Z,3.80
2023-05-23T00:16:51.824Z,3.90
2023-05-23T00:19:18.437Z,3.88
2023-05-23T00:21:50.938Z,4.03
2023-05-23T00:24:18.883Z,4.18
2023-05-23T00:26:46.578Z,3.58
2023-05-23T00:29:16.790Z,3.78
2023-05-23T00:31:46.573Z,3.50
2023-05-23T00:34:14.799Z,3.42
2023-05-23T00:36:43.654Z,3.92
2023-05-23T00:39:18.967Z,4.18
2023-05-23T00:41:49.162Z,4.60
2023-05-23T00:44:17.318Z,3.78
2023-05-23T00:46:47.524Z,3.70
2023-05-23T00:49:14.513Z,4.20
2023-05-23T00:51:43.127Z,3.63
2023-05-23T00:54:09.984Z,4.03
2023-05-23T00:56:38.664Z,4.22
2023-05-23T00:59:06.463Z,4.07
2023-05-23T01:01:33.534Z,3.70
2023-05-23T01:04:00.287Z,3.80
2023-05-23T01:06:30.559Z,3.70
2023-05-23T01:08:57.195Z,3.88
2023-05-23T01:11:33.145Z,3.63
2023-05-23T01:14:24.021Z,3.60
2023-05-23T01:17:01.633Z,3.55
2023-05-23T01:19:40.747Z,3.70
2023-05-23T01:22:16.799Z,3.83
2023-05-23T01:25:08.106Z,3.55
2023-05-23T01:27:53.057Z,3.60
2023-05-23T01:30:21.129Z,3.30
2023-05-23T01:32:50.782Z,3.30
2023-05-23T01:35:29.184Z,3.53
2023-05-23T01:37:56.326Z,3.45
2023-05-23T01:40:24.149Z,3.90
2023-05-23T01:42:51.927Z,3.42
2023-05-23T01:45:18.787Z,3.13
2023-05-23T01:47:49.207Z,3.60
2023-05-23T01:50:16.932Z,3.28
2023-05-23T01:52:43.712Z,3.85
2023-05-23T01:55:11.933Z,3.33
2023-05-23T01:57:39.012Z,3.53
2023-05-23T02:00:07.260Z,3.47
2023-05-23T02:02:34.446Z,3.55
2023-05-23T02:05:01.071Z,3.47
2023-05-23T02:07:27.865Z,3.30
2023-05-23T02:09:56.364Z,3.55
2023-05-23T02:12:23.258Z,3.60
2023-05-23T02:14:52.227Z,3.17
2023-05-23T02:17:18.887Z,3.63
2023-05-23T02:19:45.501Z,3.60
2023-05-23T02:22:12.032Z,3.40
2023-05-23T02:24:38.607Z,3.30
2023-05-23T02:27:05.706Z,3.75
2023-05-23T02:29:32.457Z,3.28
2023-05-23T02:31:59.239Z,3.42
2023-05-23T02:34:26.285Z,3.00
2023-05-23T02:36:52.836Z,3.72
2023-05-23T02:39:19.372Z,3.30
2023-05-23T02:41:45.899Z,3.25
2023-05-23T02:44:12.462Z,3.35
2023-05-23T02:46:39.117Z,3.22
2023-05-23T02:49:05.771Z,3.30
2023-05-23T02:51:32.626Z,3.70
2023-05-23T02:53:59.187Z,3.63
2023-05-23T02:56:26.948Z,3.40
2023-05-23T02:58:53.549Z,3.53
2023-05-23T03:01:20.264Z,3.67
2023-05-23T03:03:47.046Z,3.22
2023-05-23T03:06:14.544Z,3.45
2023-05-23T03:08:42.004Z,4.07
2023-05-23T03:11:08.689Z,3.47
2023-05-23T03:13:35.837Z,3.55
2023-05-23T03:16:02.748Z,3.10
2023-05-23T03:18:29.349Z,2.95
2023-05-23T03:20:55.933Z,3.42
2023-05-23T03:23:22.490Z,3.28
2023-05-23T03:25:49.395Z,3.60
2023-05-23T03:28:16.009Z,3.55
2023-05-23T03:30:42.596Z,3.17
2023-05-23T03:33:09.423Z,3.00
2023-05-23T03:35:36.048Z,3.47
2023-05-23T03:38:02.629Z,2.90
2023-05-23T03:40:29.197Z,3.35
2023-05-23T03:43:13.825Z,3.13
2023-05-23T03:45:40.777Z,3.47
2023-05-23T03:48:07.684Z,3.65
2023-05-23T03:50:34.414Z,3.25
2023-05-23T03:53:00.990Z,3.60
2023-05-23T03:55:27.614Z,2.97
2023-05-23T03:57:54.327Z,3.38
2023-05-23T04:00:20.959Z,3.58
2023-05-23T04:02:47.718Z,5.38
2023-05-23T04:05:14.408Z,4.18
2023-05-23T04:07:41.809Z,4.10
2023-05-23T04:10:09.406Z,4.38
2023-05-23T04:12:36.719Z,4.05
2023-05-23T04:15:04.029Z,4.70
2023-05-23T04:17:31.276Z,4.88
2023-05-23T04:19:58.207Z,4.60
2023-05-23T04:22:24.925Z,4.65
2023-05-23T04:24:51.640Z,4.93
2023-05-23T04:27:18.198Z,4.80
2023-05-23T04:29:46.860Z,4.97
2023-05-23T04:32:14.753Z,4.72
2023-05-23T04:34:41.339Z,4.65
2023-05-23T04:37:09.241Z,4.55
2023-05-23T04:39:35.850Z,5.13
2023-05-23T04:42:02.579Z,4.82
2023-05-23T04:44:30.249Z,5.80
2023-05-23T04:46:57.255Z,5.68
2023-05-23T04:49:23.889Z,5.93
2023-05-23T04:51:51.159Z,5.60
2023-05-23T04:54:17.747Z,5.13
2023-05-23T04:56:44.416Z,5.63
2023-05-23T04:59:11.539Z,5.55
2023-05-23T05:01:40.892Z,6.50
2023-05-23T05:04:07.849Z,8.80
2023-05-23T05:06:34.669Z,7.60
2023-05-23T05:09:01.282Z,7.97
2023-05-23T05:11:28.632Z,7.70
2023-05-23T05:13:55.363Z,7.53
2023-05-23T05:16:22.351Z,6.75
2023-05-23T05:18:48.950Z,6.28
2023-05-23T05:21:15.490Z,8.10
2023-05-23T05:23:42.091Z,7.60
2023-05-23T05:26:08.730Z,8.35
2023-05-23T05:28:35.336Z,6.93
2023-05-23T05:31:05.224Z,7.45
2023-05-23T05:33:36.084Z,6.97
2023-05-23T05:36:03.847Z,7.40
2023-05-23T05:38:30.688Z,7.78
2023-05-23T05:40:57.266Z,6.65
2023-05-23T05:43:23.969Z,7.07
2023-05-23T05:45:50.694Z,6.85
2023-05-23T05:48:17.643Z,7.47
2023-05-23T05:50:47.205Z,7.80
2023-05-23T05:53:14.251Z,8.25
2023-05-23T05:55:41.046Z,7.35
2023-05-23T05:58:07.676Z,6.85
2023-05-23T06:00:42.135Z,7.45
2023-05-23T06:03:09.314Z,6.65
2023-05-23T06:05:37.584Z,6.47
2023-05-23T06:08:04.878Z,6.72
2023-05-23T06:10:31.500Z,7.68
2023-05-23T06:12:59.712Z,6.72
2023-05-23T06:15:26.451Z,7.50
2023-05-23T06:17:53.204Z,6.65
2023-05-23T06:20:19.834Z,6.30
2023-05-23T06:22:46.647Z,6.95
2023-05-23T06:25:14.862Z,7.32
2023-05-23T06:27:41.431Z,6.72
2023-05-23T06:30:08.569Z,7.22
2023-05-23T06:32:35.214Z,6.60
2023-05-23T06:35:01.863Z,6.65
2023-05-23T06:37:28.465Z,7.38
2023-05-23T06:39:55.115Z,7.32
2023-05-23T06:42:21.689Z,6.60
2023-05-23T06:44:48.298Z,6.32
2023-05-23T06:47:14.898Z,5.97
2023-05-23T06:49:41.488Z,7.18
2023-05-23T06:52:08.045Z,6.72
2023-05-23T06:54:34.579Z,6.68
2023-05-23T06:57:01.223Z,7.18
2023-05-23T06:59:27.797Z,6.75
2023-05-23T07:01:54.350Z,7.10
2023-05-23T07:04:20.880Z,6.38
2023-05-23T07:06:47.596Z,6.25
2023-05-23T07:09:14.202Z,6.25
2023-05-23T07:11:41.241Z,5.30
2023-05-23T07:14:07.971Z,6.00
2023-05-23T07:16:34.665Z,5.93
2023-05-23T07:19:03.026Z,5.22
2023-05-23T07:21:29.648Z,5.30
2023-05-23T07:23:56.206Z,5.88
2023-05-23T07:26:22.785Z,5.60
2023-05-23T07:28:50.384Z,5.00
2023-05-23T07:31:17.130Z,5.40
2023-05-23T07:33:43.739Z,5.32
2023-05-23T07:36:11.517Z,5.57
2023-05-23T07:38:38.086Z,5.40
2023-05-23T07:41:11.569Z,5.18
2023-05-23T07:43:39.251Z,5.88
2023-05-23T07:46:05.905Z,5.03
2023-05-23T07:48:32.530Z,5.35
2023-05-23T07:50:59.256Z,5.03
2023-05-23T07:53:26.392Z,5.22
2023-05-23T07:55:53.019Z,5.65
2023-05-23T07:58:19.585Z,5.63
2023-05-23T08:00:46.214Z,5.07
2023-05-23T08:03:13.449Z,4.85
2023-05-23T08:05:40.293Z,5.13
2023-05-23T08:08:06.885Z,4.95
2023-05-23T08:10:33.585Z,5.60
2023-05-23T08:13:01.004Z,4.97
2023-05-23T08:15:28.852Z,5.03
2023-05-23T08:17:57.261Z,5.18
2023-05-23T08:20:30.874Z,4.72
2023-05-23T08:23:01.896Z,4.43
2023-05-23T08:25:32.426Z,4.40
2023-05-23T08:28:00.345Z,5.22
2023-05-23T08:30:28.142Z,4.35
2023-05-23T08:32:56.024Z,4.43
2023-05-23T08:35:23.072Z,4.25
2023-05-23T08:37:50.836Z,4.00
2023-05-23T08:40:22.613Z,4.32
2023-05-23T08:42:50.678Z,4.13
2023-05-23T08:45:18.231Z,3.97
2023-05-23T08:47:46.570Z,4.13
2023-05-23T08:50:16.080Z,4.10
2023-05-23T08:53:03.624Z,3.83
2023-05-23T08:55:32.552Z,4.28
2023-05-23T08:58:03.600Z,4.72
2023-05-23T09:00:30.316Z,4.20
2023-05-23T09:02:57.738Z,4.05
2023-05-23T09:05:26.390Z,3.85
2023-05-23T09:07:53.189Z,4.57
2023-05-23T09:10:22.790Z,4.00
2023-05-23T09:12:49.878Z,3.70
2023-05-23T09:15:17.388Z,4.80
2023-05-23T09:17:45.432Z,3.83
2023-05-23T09:20:15.420Z,4.07
2023-05-23T09:22:47.481Z,4.22
2023-05-23T09:25:14.470Z,3.85
2023-05-23T09:27:42.171Z,3.67
2023-05-23T09:30:10.728Z,3.00
2023-05-23T09:32:37.526Z,3.35
2023-05-23T09:35:06.364Z,2.92
2023-05-23T09:37:35.724Z,3.85
2023-05-23T09:40:10.453Z,3.20
2023-05-23T09:42:44.079Z,2.92
2023-05-23T09:45:11.846Z,2.92
2023-05-23T09:47:38.521Z,3.33
2023-05-23T09:50:05.777Z,2.75
2023-05-23T09:52:38.762Z,2.80
2023-05-23T09:55:06.789Z,3.22
2023-05-23T09:57:40.563Z,3.40
2023-05-23T10:00:14.121Z,3.63
2023-05-23T10:05:48.020Z,2.75
2023-05-23T10:08:36.698Z,2.67
2023-05-23T10:11:26.382Z,2.83
2023-05-23T10:13:53.728Z,2.80
2023-05-23T10:17:11.997Z,2.85
2023-05-23T10:19:47.502Z,2.50
2023-05-23T10:22:15.831Z,2.88
2023-05-23T10:24:44.776Z,2.50
2023-05-23T10:27:11.788Z,2.88
2023-05-23T10:29:38.765Z,2.50
2023-05-23T10:32:06.837Z,2.60
2023-05-23T10:35:10.683Z,2.67
2023-05-23T10:37:40.308Z,2.63
2023-05-23T10:40:38.822Z,2.90
2023-05-23T10:43:39.152Z,2.10
2023-05-23T10:46:08.834Z,2.40
2023-05-23T10:48:41.048Z,2.50
2023-05-23T10:51:09.414Z,2.20
2023-05-23T10:53:41.263Z,2.45
2023-05-23T10:56:09.638Z,2.25
2023-05-23T10:58:38.698Z,2.50
2023-05-23T11:01:13.713Z,2.92
2023-05-23T11:03:46.410Z,2.53
2023-05-23T11:06:29.673Z,2.72
2023-05-23T11:09:09.845Z,2.70
2023-05-23T11:11:54.752Z,1.90
2023-05-23T11:14:34.288Z,2.90
2023-05-23T11:17:15.048Z,2.40
2023-05-23T11:20:08.769Z,2.22
2023-05-23T11:22:36.590Z,2.25
2023-05-23T11:25:10.378Z,2.70
2023-05-23T11:27:39.227Z,2.45
2023-05-23T11:30:13.659Z,2.40
2023-05-23T11:32:41.557Z,1.90
2023-05-23T11:35:11.939Z,2.05
2023-05-23T11:37:39.676Z,2.63
2023-05-23T11:40:25.159Z,2.47
2023-05-23T11:42:54.134Z,2.00
2023-05-23T11:45:22.215Z,2.65
2023-05-23T11:47:48.988Z,2.15
2023-05-23T11:50:16.927Z,2.35
2023-05-23T11:52:43.671Z,2.17
2023-05-23T11:55:10.237Z,2.35
2023-05-23T11:57:39.928Z,2.00
2023-05-23T12:00:08.918Z,2.25
2023-05-23T12:02:42.316Z,2.13
2023-05-23T12:05:13.809Z,2.40
2023-05-23T12:07:48.771Z,2.13
2023-05-23T12:10:16.901Z,1.88
2023-05-23T12:12:44.833Z,1.98
2023-05-23T12:15:12.452Z,2.35
2023-05-23T12:17:40.175Z,2.40
2023-05-23T12:20:07.928Z,2.08
2023-05-23T12:22:35.053Z,2.03
2023-05-23T12:25:02.365Z,2.60
2023-05-23T12:27:31.430Z,2.53
2023-05-23T12:30:17.252Z,2.33
2023-05-23T12:32:45.878Z,2.30
2023-05-23T12:35:14.861Z,2.00
2023-05-23T12:37:48.521Z,1.80
2023-05-23T12:42:56.858Z,2.00
2023-05-23T12:45:30.868Z,2.45
2023-05-23T12:47:57.589Z,2.03
2023-05-23T12:50:24.398Z,2.10
2023-05-23T12:52:51.501Z,2.03
2023-05-23T12:55:18.274Z,2.05
2023-05-23T12:57:44.992Z,2.45
2023-05-23T13:00:12.548Z,1.90
2023-05-23T13:02:40.104Z,2.13
2023-05-23T13:05:07.450Z,1.98
2023-05-23T13:07:34.489Z,1.88
2023-05-23T13:10:02.600Z,1.73
2023-05-23T13:12:29.711Z,2.30
2023-05-23T13:14:57.950Z,1.95
2023-05-23T13:17:24.877Z,1.75
2023-05-23T13:19:51.801Z,1.92
2023-05-23T13:22:18.572Z,1.92
2023-05-23T13:24:46.211Z,1.88
2023-05-23T13:27:13.044Z,2.10
2023-05-23T13:29:40.012Z,1.80
2023-05-23T13:32:07.040Z,2.38
2023-05-23T13:34:37.297Z,2.13
2023-05-23T13:37:04.973Z,1.33
2023-05-23T13:39:31.870Z,1.50
2023-05-23T13:41:59.115Z,1.70
2023-05-23T13:44:25.809Z,2.10
2023-05-23T13:46:52.752Z,1.60
2023-05-23T13:49:19.505Z,1.60
2023-05-23T13:51:46.244Z,1.85
2023-05-23T13:54:14.071Z,2.63
2023-05-23T13:56:41.152Z,1.80
2023-05-23T13:59:07.851Z,2.10
2023-05-23T14:01:34.657Z,1.92
2023-05-23T14:04:01.588Z,1.80
2023-05-23T14:06:28.394Z,1.70
2023-05-23T14:08:56.031Z,1.30
2023-05-23T14:11:22.778Z,1.55
2023-05-23T14:13:49.546Z,1.48
2023-05-23T14:16:16.465Z,1.50
2023-05-23T14:18:43.786Z,2.33
2023-05-23T14:21:10.791Z,1.35
2023-05-23T14:23:37.404Z,1.70
2023-05-23T14:26:04.449Z,1.98
2023-05-23T14:28:31.619Z,1.70
2023-05-23T14:30:59.267Z,1.50
2023-05-23T14:33:26.302Z,1.95
2023-05-23T14:35:53.280Z,1.55
2023-05-23T14:38:20.397Z,1.63
2023-05-23T14:40:49.927Z,1.75
2023-05-23T14:43:17.172Z,1.52
2023-05-23T14:45:44.059Z,1.60
2023-05-23T14:48:11.692Z,1.60
2023-05-23T14:50:40.987Z,1.92
2023-05-23T14:53:07.708Z,2.35
2023-05-23T14:55:34.552Z,2.15
2023-05-23T14:58:01.572Z,1.42
2023-05-23T15:00:28.648Z,1.55
2023-05-23T15:02:55.823Z,1.60
2023-05-23T15:05:22.451Z,1.60
2023-05-23T15:07:49.372Z,1.83
2023-05-23T15:10:16.485Z,1.75
2023-05-23T15:12:43.977Z,1.60
2023-05-23T15:15:11.506Z,1.63
2023-05-23T15:17:38.266Z,1.60
2023-05-23T15:20:07.211Z,1.80
2023-05-23T15:22:39.512Z,1.85
2023-05-23T15:25:08.305Z,1.38
2023-05-23T15:27:35.099Z,1.60
2023-05-23T15:30:02.522Z,2.15
2023-05-23T15:32:29.529Z,2.05
2023-05-23T15:34:56.485Z,2.17
2023-05-23T15:37:24.249Z,2.17
2023-05-23T15:39:51.175Z,1.83
2023-05-23T15:42:20.429Z,1.73
2023-05-23T15:44:47.138Z,1.60
2023-05-23T15:47:15.274Z,2.00
2023-05-23T15:49:41.921Z,1.73
2023-05-23T15:52:09.056Z,2.10
2023-05-23T15:54:35.720Z,2.05
2023-05-23T15:57:02.450Z,2.13
2023-05-23T15:59:29.112Z,1.70
2023-05-23T16:01:56.963Z,1.70
2023-05-23T16:04:24.251Z,1.92
2023-05-23T16:06:51.765Z,2.45
2023-05-23T16:09:18.636Z,2.40
2023-05-23T16:11:45.411Z,2.08
2023-05-23T16:14:12.122Z,1.88
2023-05-23T16:16:38.881Z,1.80
2023-05-23T16:19:06.054Z,1.90
2023-05-23T16:21:33.353Z,2.10
2023-05-23T16:24:00.438Z,2.55
2023-05-23T16:26:28.264Z,2.17
2023-05-23T16:28:54.878Z,2.60
2023-05-23T16:31:27.154Z,2.38
2023-05-23T16:33:54.106Z,1.80
2023-05-23T16:36:21.105Z,2.10
2023-05-23T16:38:48.255Z,2.58
2023-05-23T16:41:18.245Z,3.50
2023-05-23T16:43:44.969Z,2.40
2023-05-23T16:46:11.869Z,2.35
2023-05-23T16:48:38.528Z,2.00
2023-05-23T16:51:06.383Z,2.58
2023-05-23T16:53:33.220Z,2.38
2023-05-23T16:55:59.914Z,2.97
2023-05-23T16:58:29.598Z,2.47
2023-05-23T17:00:56.648Z,2.28
2023-05-23T17:03:25.060Z,3.58
2023-05-23T17:05:54.072Z,3.13
2023-05-23T17:08:20.717Z,3.17
2023-05-23T17:10:47.529Z,2.80
2023-05-23T17:13:14.302Z,2.85
2023-05-23T17:15:41.213Z,2.85
2023-05-23T17:18:08.159Z,3.45
2023-05-23T17:20:34.858Z,3.58
2023-05-23T17:23:01.547Z,3.72
2023-05-23T17:25:28.528Z,3.70
2023-05-23T17:27:56.897Z,3.45
2023-05-23T17:30:23.669Z,3.40
2023-05-23T17:32:50.502Z,4.43
2023-05-23T17:35:17.458Z,4.38
2023-05-23T17:37:44.954Z,4.10
2023-05-23T17:40:12.887Z,4.57
2023-05-23T17:42:40.823Z,3.70
2023-05-23T17:45:09.813Z,4.45
2023-05-23T17:47:37.299Z,3.80
2023-05-23T17:50:05.004Z,3.83
2023-05-23T17:52:33.493Z,4.20
2023-05-23T17:55:00.622Z,3.80
2023-05-23T17:57:31.310Z,4.32
2023-05-23T17:59:59.303Z,4.30
2023-05-23T18:02:27.183Z,4.22
2023-05-23T18:04:54.631Z,4.53
2023-05-23T18:07:21.300Z,4.47
2023-05-23T18:09:49.127Z,4.35
2023-05-23T18:12:16.690Z,4.57
2023-05-23T18:14:44.484Z,4.25
2023-05-23T18:17:14.176Z,4.60
2023-05-23T18:19:42.267Z,4.40
2023-05-23T18:22:10.168Z,4.60
2023-05-23T18:24:37.593Z,4.55
2023-05-23T18:27:15.973Z,4.15
2023-05-23T18:29:44.199Z,4.15
2023-05-23T18:32:13.126Z,4.93
2023-05-23T18:34:40.154Z,4.53
2023-05-23T18:37:07.101Z,5.25
2023-05-23T18:39:34.038Z,4.47
2023-05-23T18:42:00.900Z,5.13
2023-05-23T18:44:28.709Z,4.10
2023-05-23T18:46:56.717Z,4.93
2023-05-23T18:49:23.569Z,5.20
2023-05-23T18:51:51.888Z,4.88
2023-05-23T18:54:18.852Z,4.50
2023-05-23T18:56:48.662Z,4.70
2023-05-23T18:59:16.932Z,4.68
2023-05-23T19:01:43.745Z,5.22
2023-05-23T19:04:12.359Z,5.35
2023-05-23T19:06:39.230Z,5.45
2023-05-23T19:09:10.212Z,5.18
2023-05-23T19:11:42.507Z,4.85
2023-05-23T19:14:10.339Z,5.22
2023-05-23T19:16:38.032Z,5.35
2023-05-23T19:19:06.259Z,5.10
2023-05-23T19:21:34.474Z,5.85
2023-05-23T19:24:02.371Z,5.20
2023-05-23T19:26:30.523Z,5.25
2023-05-23T19:29:10.141Z,5.13
2023-05-23T19:31:37.980Z,5.95
2023-05-23T19:34:06.550Z,6.10
2023-05-23T19:36:33.765Z,5.53
2023-05-23T19:39:01.443Z,6.78
2023-05-23T19:41:32.659Z,5.88
2023-05-23T19:43:59.882Z,6.22
2023-05-23T19:46:29.036Z,5.05
2023-05-23T19:49:00.032Z,6.47
2023-05-23T19:51:27.414Z,6.20
2023-05-23T19:53:55.053Z,6.07
2023-05-23T19:56:25.945Z,5.43
2023-05-23T19:58:52.671Z,5.30
2023-05-23T20:01:19.373Z,5.72
2023-05-23T20:03:46.152Z,5.45
2023-05-23T20:06:13.512Z,5.80
2023-05-23T20:08:40.400Z,6.80
2023-05-23T20:11:10.995Z,7.22
2023-05-23T20:13:39.113Z,7.15
2023-05-23T20:16:08.037Z,7.63
2023-05-23T20:18:36.399Z,7.55
2023-05-23T20:21:05.369Z,7.93
2023-05-23T20:23:32.226Z,7.38
2023-05-23T20:26:03.517Z,7.25
2023-05-23T20:28:31.886Z,7.45
2023-05-23T20:30:59.938Z,7.30
2023-05-23T20:33:26.813Z,7.57
2023-05-23T20:35:53.997Z,7.28
2023-05-23T20:38:20.681Z,6.82
2023-05-23T20:40:52.787Z,7.75
2023-05-23T20:43:22.232Z,7.65
2023-05-23T20:45:49.940Z,7.60
2023-05-23T20:48:17.041Z,7.18
2023-05-23T20:50:44.682Z,6.40
2023-05-23T20:53:11.914Z,6.70
2023-05-23T20:55:38.886Z,7.45
2023-05-23T20:58:07.390Z,7.05
2023-05-23T21:00:35.990Z,6.97
2023-05-23T21:03:03.053Z,6.78
2023-05-23T21:05:29.803Z,7.32
2023-05-23T21:07:56.543Z,6.95
2023-05-23T21:10:24.601Z,6.90
2023-05-23T21:12:51.712Z,7.07
2023-05-23T21:15:19.059Z,6.47
2023-05-23T21:17:47.062Z,7.20
2023-05-23T21:20:14.011Z,7.32
2023-05-23T21:22:41.231Z,7.97
2023-05-23T21:25:08.304Z,7.40
2023-05-23T21:27:34.981Z,7.32
2023-05-23T21:30:05.670Z,6.63
2023-05-23T21:32:33.046Z,6.82
2023-05-23T21:34:59.835Z,7.20
2023-05-23T21:37:26.764Z,7.88
2023-05-23T21:39:53.646Z,7.07
2023-05-23T21:42:20.972Z,6.70
2023-05-23T21:44:48.156Z,7.45
2023-05-23T21:47:14.953Z,7.15
2023-05-23T21:49:41.659Z,7.00
2023-05-23T21:52:08.328Z,6.05
2023-05-23T21:54:35.089Z,6.95
2023-05-23T21:57:01.843Z,6.63
2023-05-23T21:59:28.677Z,6.10
2023-05-23T22:01:55.589Z,6.78
2023-05-23T22:04:22.289Z,6.43
2023-05-23T22:06:49.077Z,6.45
2023-05-23T22:09:15.855Z,6.97
2023-05-23T22:11:43.134Z,6.93
2023-05-23T22:14:10.323Z,6.95
2023-05-23T22:16:40.548Z,6.80
2023-05-23T22:19:09.882Z,6.60
2023-05-23T22:21:36.909Z,6.53
2023-05-23T22:24:03.820Z,6.75
2023-05-23T22:26:30.746Z,6.82
2023-05-23T22:28:57.484Z,6.13
2023-05-23T22:31:24.459Z,6.50
2023-05-23T22:33:51.412Z,6.32
2023-05-23T22:36:18.326Z,7.20
2023-05-23T22:38:45.732Z,5.68
2023-05-23T22:41:12.352Z,5.82
2023-05-23T22:43:39.097Z,5.93
2023-05-23T22:46:06.248Z,6.35
2023-05-23T22:48:33.629Z,6.25
2023-05-23T22:51:02.079Z,6.97
2023-05-23T22:53:29.297Z,6.60
2023-05-23T22:55:56.115Z,6.18
2023-05-23T22:58:22.693Z,6.20
2023-05-23T23:00:49.311Z,6.38
2023-05-23T23:03:16.180Z,6.25
2023-05-23T23:05:42.997Z,6.43
2023-05-23T23:08:09.629Z,6.50
2023-05-23T23:10:36.288Z,6.07
2023-05-23T23:13:03.301Z,5.75
2023-05-23T23:15:30.196Z,5.72
2023-05-23T23:17:57.276Z,5.47
2023-05-23T23:20:24.020Z,6.03
2023-05-23T23:22:50.779Z,5.90
2023-05-23T23:25:18.988Z,5.35
2023-05-23T23:27:45.660Z,5.68
2023-05-23T23:30:12.547Z,5.70
2023-05-23T23:32:39.158Z,5.88
2023-05-23T23:35:06.267Z,5.28
2023-05-23T23:37:33.060Z,5.32
2023-05-23T23:39:59.620Z,5.63
2023-05-23T23:42:26.554Z,5.35
2023-05-23T23:44:53.134Z,5.05
2023-05-23T23:47:19.705Z,5.72
2023-05-23T23:49:46.230Z,5.40
2023-05-23T23:52:12.867Z,6.05
2023-05-23T23:54:39.459Z,5.82
2023-05-23T23:57:06.750Z,5.40
2023-05-23T23:59:33.322Z,4.82
